Weather observations for the past three days for
Wharton, Wharton Regional Airport
| Date | Time (cdt) | Wind (kph) | Vis. (km) | Weather | Sky Cond. | Temperature (ºC) | Relative Humidity | Wind Chill (°C) | Heat Index (°C) | Pressure | Precipitation (cm) | ||||||
|---|---|---|---|---|---|---|---|---|---|---|---|---|---|---|---|---|---|
| Air | Dwpt | 6 hour | altimeter (cm) | sea level (mb) | 1 hr | 3 hr | 6 hr | ||||||||||
| Max. | Min. | ||||||||||||||||
| 08 | 16:35 | E 11 | 11.27 | Overcast | BKN007 OVC013 | 22.8 | 20.7 | 88% | 75.72 | 0.0 | |||||||
| 08 | 16:15 | E 11 | 8.05 | Fog/Mist | OVC007 | 22.6 | 20.7 | 89% | 75.74 | 0.0 | |||||||
| 08 | 15:55 | E 13 | 8.05 | Fog/Mist | OVC007 | 22.3 | 20.5 | 90% | 75.77 | 0.0 | |||||||
| 08 | 15:35 | E 15 | 11.27 | Overcast | BKN007 OVC013 | 22.3 | 20.4 | 89% | 75.79 | 0.0 | |||||||
| 08 | 15:15 | E 15 | 8.05 | Fog/Mist | OVC005 | 21.7 | 20.2 | 91% | 75.79 | 0.0 | |||||||
| 08 | 14:55 | NE 13 | 11.27 | Overcast | OVC005 | 21.5 | 20.1 | 92% | 75.82 | 0.0 | |||||||
| 08 | 14:35 | Calm | 11.27 | Overcast | OVC005 | 21.3 | 20 | 92% | 75.84 | 0.0 | |||||||
| 08 | 14:15 | NE 17 | 8.05 | Fog/Mist | OVC005 | 21 | 20 | 94% | 75.84 | 0.0 | |||||||
| 08 | 13:55 | NE 11 | 8.05 | Fog/Mist | BKN005 OVC013 | 21 | 20 | 94% | 75.84 | 0.0 | |||||||
| 08 | 13:35 | E 15 | 8.05 | Fog/Mist | BKN005 OVC013 | 21 | 20 | 94% | 75.84 | 0.0 | |||||||
| 08 | 13:15 | NE 17 | 6.44 | Fog/Mist | BKN003 OVC013 | 20.7 | 20 | 96% | 75.84 | 0.0 | |||||||
| 08 | 12:55 | NE 19 | 3.22 | Fog/Mist | OVC003 | 20.3 | 19.7 | 21.1 | 19 | 96% | 75.9 | 0.0 | |||||
| 08 | 12:35 | NE 17 | 2.01 | Fog/Mist | OVC003 | 20.3 | 19.7 | 96% | 75.9 | 0.0 | |||||||
| 08 | 12:15 | N 11 | 2.41 | Fog/Mist | OVC003 | 20.8 | 20.1 | 96% | 75.95 | 0.0 | |||||||
| 08 | 11:55 | NE 9 | 4.83 | Fog/Mist | OVC005 | 21 | 20 | 94% | 75.95 | 0.0 | |||||||
| 08 | 11:35 | NE 17 | 4.83 | Fog/Mist | OVC005 | 21 | 19.9 | 93% | 75.92 | 0.0 | |||||||
| 08 | 11:15 | NE 9 | 6.44 | Fog/Mist | OVC005 | 20.8 | 19.6 | 93% | 75.97 | 0.0 | |||||||
| 08 | 10:55 | E 15 | 8.05 | Fog/Mist | OVC005 | 21 | 19.6 | 92% | 75.95 | 0.0 | |||||||
| 08 | 10:35 | E 17 | 16.09 | Overcast | OVC005 | 21.1 | 19.5 | 91% | 75.95 | 0.0 | |||||||
| 08 | 10:15 | NE 7 | 11.27 | Overcast | OVC005 | 20.7 | 19.3 | 92% | 76 | 0.0 | |||||||
| 08 | 09:55 | E 13 | 16.09 | Overcast | OVC007 | 20.3 | 19.1 | 93% | 75.95 | 0.0 | |||||||
| 08 | 09:35 | NE 15 | 16.09 | Overcast | OVC007 | 20.4 | 19.1 | 92% | 75.92 | 0.0 | |||||||
| 08 | 09:15 | NE 11 | 16.09 | Overcast | OVC007 | 20.2 | 19 | 93% | 75.95 | 0.0 | |||||||
| 08 | 08:55 | NE 7 | 11.27 | Overcast | OVC007 | 19.9 | 19 | 95% | 76.02 | 0.0 | |||||||
| 08 | 08:35 | NE 9 | 16.09 | Overcast | OVC009 | 19.5 | 18.5 | 94% | 76 | 0.0 | |||||||
| 08 | 08:15 | NE 11 | 16.09 | Light Drizzle | OVC009 | 19.3 | 18.2 | 93% | 76.02 | 0.0 | |||||||
| 08 | 07:55 | E 15 | 16.09 | Light Drizzle | OVC009 | 19.1 | 18 | 93% | 75.97 | 0.0 | |||||||
| 08 | 07:35 | N 17 | 16.09 | Overcast | OVC009 | 19 | 17.5 | 91% | 76.02 | 0.0 | |||||||
| 08 | 07:15 | N 20 | 16.09 | Overcast | OVC009 | 19.1 | 17.1 | 88% | 76.02 | 0.0 | |||||||
| 08 | 06:55 | N 17 | 16.09 | Overcast | OVC009 | 19 | 17 | 20.7 | 19 | 88% | 76 | 0.0 | |||||
| 08 | 06:35 | NW 19 | 16.09 | Overcast | OVC007 | 19.3 | 17.2 | 88% | 76.02 | 0.0 | |||||||
| 08 | 06:15 | E 6 | 16.09 | Overcast | OVC005 | 20 | 18.1 | 89% | 75.92 | 0.0 | |||||||
| 08 | 05:55 | Calm | 16.09 | Overcast | OVC007 | 19.6 | 17.5 | 88% | 75.95 | 0.0 | |||||||
| 08 | 05:35 | N 9 | 16.09 | Overcast | OVC009 | 19.8 | 17.9 | 89% | 75.95 | 0.0 | |||||||
| 08 | 05:15 | W 6 | 16.09 | Overcast | OVC009 | 20 | 18 | 88% | 76 | 0.0 | |||||||
| 08 | 04:55 | NW 13 | 16.09 | Light Drizzle | OVC009 | 20.2 | 17.9 | 87% | 76 | 0.0 | |||||||
| 08 | 04:35 | NW 9 | 16.09 | Overcast | OVC011 | 20.5 | 18.5 | 88% | 76 | 0.0 | |||||||
| 08 | 04:15 | Calm | 16.09 | Overcast | OVC011 | 20.5 | 18.6 | 89% | 75.95 | 0.0 | |||||||
| 08 | 03:55 | Calm | 16.09 | Overcast | BKN013 OVC018 | 20.6 | 18 | 85% | 75.95 | 0.0 | |||||||
| 08 | 03:35 | N 6 | 16.09 | Overcast | OVC017 | 20.6 | 18 | 85% | 75.95 | 0.0 | |||||||
| 08 | 03:15 | N 7 | 16.09 | Overcast | OVC019 | 20.6 | 17.8 | 84% | 75.97 | 0.0 | |||||||
| 08 | 02:55 | NW 6 | 16.09 | Overcast | OVC021 | 20.5 | 17.8 | 85% | 76 | 0.0 | |||||||
| 08 | 02:35 | NW 6 | 16.09 | Overcast | OVC021 | 20.5 | 17.6 | 84% | 76.02 | 0.0 | |||||||
| 08 | 02:15 | Calm | 16.09 | Overcast | OVC023 | 20.6 | 17.8 | 84% | 76.02 | 0.0 | |||||||
| 08 | 01:55 | Calm | 16.09 | Overcast | OVC025 | 20.5 | 17.5 | 83% | 76.02 | 0.0 | |||||||
| 08 | 01:35 | N 7 | 16.09 | Overcast | OVC027 | 20.5 | 17.6 | 84% | 76.05 | 0.0 | |||||||
| 08 | 01:15 | N 9 | 16.09 | Overcast | SCT021 OVC026 | 20.5 | 17.5 | 83% | 76.05 | 0.0 | |||||||
| 08 | 00:55 | N 9 | 16.09 | Overcast | BKN020 OVC026 | 20.5 | 17.3 | 24.1 | 20.5 | 82% | 76.02 | 0.0 | |||||
| 08 | 00:35 | N 15 | 16.09 | Overcast | OVC026 | 20.6 | 17.5 | 83% | 76.02 | 0.0 | |||||||
| 08 | 00:15 | Calm | 16.09 | Overcast | OVC024 | 22.3 | 19.5 | 84% | 76.02 | 0.0 | |||||||
| 07 | 23:55 | Calm | 16.09 | Overcast | OVC022 | 22.5 | 19.1 | 81% | 76.02 | 0.0 | |||||||
| 07 | 23:35 | E 9 | 16.09 | Mostly Cloudy | BKN024 | 22.5 | 19 | 81% | 75.97 | 0.0 | |||||||
| 07 | 23:15 | E 11 | 16.09 | Mostly Cloudy | BKN024 | 22.3 | 18.8 | 81% | 76 | 0.0 | |||||||
| 07 | 22:55 | SE 7 | 16.09 | Partly Cloudy | SCT026 | 21.8 | 18.5 | 82% | 76.02 | 0.0 | |||||||
| 07 | 22:35 | E 6 | 16.09 | Overcast | OVC028 | 21.2 | 17.5 | 80% | 76.02 | 0.0 | |||||||
| 07 | 22:15 | N 9 | 16.09 | Overcast | OVC030 | 21.4 | 17.1 | 77% | 76.05 | 0.0 | |||||||
| 07 | 21:55 | N 7 | 16.09 | Overcast | OVC030 | 22.1 | 17.9 | 77% | 76.1 | 0.0 | |||||||
| 07 | 21:35 | N 7 | 16.09 | Mostly Cloudy | BKN030 | 22 | 18.3 | 80% | 76.07 | 0.0 | |||||||
| 07 | 21:15 | NE 7 | 16.09 | Mostly Cloudy | SCT032 BKN038 | 22.2 | 18 | 77% | 76.02 | 0.0 | |||||||
| 07 | 20:55 | NE 9 | 16.09 | Partly Cloudy | SCT036 | 22.6 | 17.9 | 75% | 76.02 | 0.0 | |||||||
| 07 | 20:35 | N 9 | 16.09 | Partly Cloudy | SCT032 SCT042 | 22.8 | 18.1 | 75% | 76.02 | 0.0 | |||||||
| 07 | 20:15 | N 17 | 16.09 | Overcast | OVC032 | 23.1 | 18.4 | 75% | 76.02 | 0.0 | |||||||
| 07 | 19:55 | N 17 | 16.09 | Light Rain | OVC032 | 23.4 | 18.5 | 74% | 76.02 | 0.0 | |||||||
| 07 | 19:35 | N 9 | 16.09 | Overcast | OVC032 | 24 | 18.8 | 73% | 25 | 76.05 | 0.0 | ||||||
| 07 | 19:15 | N 6 | 16.09 | Overcast | OVC030 | 24 | 18.6 | 72% | 25 | 76.02 | 0.0 | ||||||
| 07 | 18:55 | N 15 | 16.09 | Overcast | BKN030 OVC035 | 24.2 | 18.6 | 25.2 | 20 | 71% | 25 | 76.02 | 0.0 | ||||
| 07 | 18:35 | N 13 | 16.09 | Overcast | OVC033 | 24.3 | 18.6 | 71% | 25 | 76.02 | 0.0 | ||||||
| 07 | 18:15 | N 15 | 16.09 | Overcast | BKN033 OVC041 | 24.5 | 18.5 | 69% | 25 | 76.02 | 0.0 | ||||||
| 07 | 17:55 | NE 11 | 16.09 | Mostly Cloudy | SCT033 SCT039 BKN060 | 24.8 | 18.6 | 69% | 26 | 76.02 | 0.0 | ||||||
| 07 | 17:35 | NE 13 | 16.09 | Partly Cloudy | SCT037 SCT060 | 25.1 | 18.8 | 68% | 26 | 76.02 | 0.0 | ||||||
| 07 | 17:15 | NE 17 | 16.09 | Mostly Cloudy | BKN035 BKN065 | 25.1 | 18.6 | 67% | 26 | 76 | 0.0 | ||||||
| 07 | 16:55 | NE 17 | 16.09 | Overcast | BKN037 OVC065 | 25 | 18.6 | 68% | 26 | 76 | 0.0 | ||||||
| 07 | 16:35 | NE 17 | 16.09 | Overcast | OVC035 | 25 | 18.5 | 67% | 26 | 76.02 | 0.0 | ||||||
| 07 | 16:15 | NE 17 | 16.09 | Overcast | OVC035 | 24.2 | 18 | 68% | 25 | 76.05 | 0.0 | ||||||
| 07 | 15:55 | N 13 | 16.09 | Overcast | OVC033 | 24.1 | 18 | 69% | 25 | 76.07 | 0.0 | ||||||
| 07 | 15:35 | NE 13 | 16.09 | Overcast | OVC033 | 23.6 | 17.5 | 69% | 76.1 | 0.0 | |||||||
| 07 | 15:15 | N 11 | 16.09 | Overcast | OVC033 | 23.2 | 17.5 | 70% | 76.1 | 0.0 | |||||||
| 07 | 14:55 | NE 17 | 16.09 | Overcast | SCT021 OVC033 | 22.8 | 17.4 | 72% | 76.1 | 0.0 | |||||||
| 07 | 14:35 | N 19 | 16.09 | Overcast | BKN021 OVC031 | 22.9 | 17.4 | 71% | 76.12 | 0.0 | |||||||
| 07 | 14:15 | N 20 | 16.09 | Overcast | OVC021 | 22.5 | 17.1 | 72% | 76.15 | 0.0 | |||||||
| 07 | 13:55 | N 22 G 31 | 16.09 | Overcast | OVC019 | 21.6 | 16.7 | 74% | 76.17 | 0.0 | |||||||
| 07 | 13:35 | N 17 | 16.09 | Overcast | BKN019 OVC029 | 20.9 | 16.2 | 75% | 76.2 | 0.0 | |||||||
| 07 | 13:15 | N 20 | 16.09 | Overcast | BKN017 OVC029 | 20.4 | 16.1 | 76% | 76.2 | 0.0 | |||||||
| 07 | 12:55 | N 22 | 16.09 | Overcast | SCT017 OVC029 | 20 | 15.9 | 20 | 18.1 | 77% | 76.2 | 0.0 | |||||
| 07 | 12:35 | N 24 G 31 | 16.09 | Overcast | OVC015 | 19.3 | 15.6 | 79% | 76.23 | 0.0 | |||||||
| 07 | 12:15 | N 22 | 16.09 | Overcast | OVC013 | 18.7 | 15.5 | 82% | 76.25 | 0.0 | |||||||
| 07 | 11:55 | N 19 | 16.09 | Overcast | OVC013 | 18.5 | 15.5 | 83% | 76.25 | 0.0 | |||||||
| 07 | 11:35 | N 22 | 16.09 | Overcast | OVC013 | 18.5 | 15.6 | 83% | 76.25 | 0.0 | |||||||
| 07 | 11:15 | N 20 | 16.09 | Overcast | OVC013 | 19.1 | 15.8 | 81% | 76.23 | 0.0 | |||||||
| 07 | 10:55 | N 20 | 16.09 | Overcast | OVC013 | 18.8 | 15.9 | 83% | 76.2 | 0.0 | |||||||
| 07 | 10:35 | N 20 | 16.09 | Overcast | OVC011 | 18.5 | 15.8 | 84% | 76.23 | 0.0 | |||||||
| 07 | 10:15 | N 22 G 35 | 16.09 | Overcast | OVC011 | 18.5 | 15.8 | 84% | 76.17 | 0.0 | |||||||
| 07 | 09:55 | N 20 G 28 | 16.09 | Overcast | OVC011 | 18.5 | 16.2 | 87% | 76.2 | 0.0 | |||||||
| 07 | 09:35 | N 20 | 16.09 | Overcast | OVC013 | 18.5 | 16.1 | 86% | 76.23 | 0.0 | |||||||
| 07 | 09:15 | N 17 G 30 | 16.09 | Overcast | OVC011 | 18.5 | 15.9 | 85% | 76.23 | 0.0 | |||||||
| 07 | 08:55 | N 22 | 16.09 | Overcast | OVC011 | 18.2 | 16 | 87% | 76.2 | 0.0 | |||||||
| 07 | 08:35 | N 26 G 33 | 16.09 | Overcast | OVC011 | 18.2 | 16.1 | 88% | 76.15 | 0.0 | |||||||
| 07 | 08:15 | N 28 G 37 | 16.09 | Overcast | OVC011 | 18.2 | 16 | 87% | 76.1 | 0.0 | |||||||
| 07 | 07:55 | N 26 G 33 | 16.09 | Overcast | OVC013 | 18.5 | 16 | 85% | 76.15 | 0.0 | |||||||
| 07 | 07:35 | N 22 | 16.09 | Overcast | OVC015 | 18.5 | 16.1 | 86% | 76.12 | 0.0 | |||||||
| 07 | 07:15 | N 19 | 16.09 | Overcast | OVC015 | 18.5 | 16 | 85% | 76.15 | 0.0 | |||||||
| 07 | 06:55 | N 17 | 16.09 | Overcast | OVC015 | 18.5 | 16 | 20.1 | 18.3 | 85% | 76.12 | 0.0 | |||||
| 07 | 06:35 | N 15 | 16.09 | Overcast | OVC015 | 18.5 | 16 | 85% | 76.07 | 0.0 | |||||||
| 07 | 06:15 | N 13 | 16.09 | Overcast | OVC015 | 18.5 | 16 | 85% | 76.05 | 0.0 | |||||||
| 07 | 05:55 | N 15 | 16.09 | Overcast | OVC015 | 18.4 | 15.8 | 85% | 76.05 | 0.0 | |||||||
| 07 | 05:35 | N 15 | 16.09 | Overcast | OVC015 | 18.4 | 15.8 | 85% | 76.05 | 0.0 | |||||||
| 07 | 05:15 | N 15 | 16.09 | Overcast | OVC015 | 18.3 | 15.6 | 84% | 76.05 | 0.0 | |||||||
| 07 | 04:55 | N 13 | 16.09 | Overcast | OVC015 | 18.5 | 15.6 | 83% | 76.02 | 0.0 | |||||||
| 07 | 04:35 | N 17 | 16.09 | Overcast | OVC015 | 18.5 | 15.6 | 83% | 76.02 | 0.0 | |||||||
| 07 | 04:15 | N 15 | 16.09 | Overcast | OVC015 | 18.5 | 15.6 | 83% | 76 | 0.0 | |||||||
| 07 | 03:55 | N 17 | 16.09 | Overcast | OVC017 | 18.5 | 15.5 | 83% | 75.97 | 0.0 | |||||||
| 07 | 03:35 | N 19 | 16.09 | Overcast | OVC017 | 18.7 | 15.5 | 82% | 76 | 0.0 | |||||||
| 07 | 03:15 | N 19 | 16.09 | Overcast | OVC017 | 18.7 | 15.5 | 82% | 76.02 | 0.0 | |||||||
| 07 | 02:55 | N 20 | 16.09 | Overcast | OVC017 | 18.8 | 15.6 | 82% | 76 | 0.0 | |||||||
| 07 | 02:35 | N 15 | 16.09 | Overcast | OVC017 | 19 | 15.9 | 82% | 76.02 | 0.0 | |||||||
| 07 | 02:15 | N 20 G 30 | 16.09 | Overcast | OVC017 | 19.1 | 16 | 82% | 76.02 | 0.0 | |||||||
| 07 | 01:55 | N 19 | 16.09 | Overcast | OVC017 | 19.5 | 16.1 | 81% | 76.05 | 0.0 | |||||||
| 07 | 01:35 | N 20 | 16.09 | Overcast | OVC017 | 19.5 | 16.1 | 81% | 76.02 | 0.0 | |||||||
| 07 | 01:15 | N 20 | 16.09 | Overcast | OVC017 | 19.7 | 16.4 | 81% | 76.02 | 0.0 | |||||||
| 07 | 00:55 | N 20 G 28 | 16.09 | Overcast | OVC017 | 20.2 | 16.8 | 27.5 | 20.2 | 81% | 76 | 0.0 | |||||
| 07 | 00:35 | N 17 | 16.09 | Overcast | OVC017 | 20.2 | 16.8 | 81% | 76 | 0.0 | |||||||
| 07 | 00:15 | N 17 | 16.09 | Overcast | OVC015 | 20.3 | 16.7 | 80% | 76 | 0.0 | |||||||
| 06 | 23:55 | N 13 G 19 | 16.09 | Overcast | OVC015 | 20.5 | 16.6 | 78% | 75.97 | 0.0 | |||||||
| 06 | 23:35 | N 13 | 16.09 | Overcast | OVC015 | 20.5 | 16.6 | 78% | 76 | 0.0 | |||||||
| 06 | 23:15 | N 22 | 16.09 | Overcast | OVC015 | 20.7 | 16.6 | 77% | 75.97 | 0.0 | |||||||
| 06 | 22:55 | N 22 | 16.09 | Overcast | OVC017 | 20.8 | 16.6 | 77% | 75.97 | 0.0 | |||||||
| 06 | 22:35 | N 22 | 16.09 | Overcast | OVC017 | 21.1 | 16.9 | 77% | 75.97 | 0.0 | |||||||
| 06 | 22:15 | N 22 | 16.09 | Overcast | OVC017 | 21.5 | 17 | 76% | 75.95 | 0.0 | |||||||
| 06 | 21:55 | N 22 | 16.09 | Overcast | OVC017 | 21.7 | 17.5 | 77% | 75.92 | 0.0 | |||||||
| 06 | 21:35 | N 17 | 16.09 | Overcast | OVC017 | 22 | 17.7 | 77% | 75.9 | 0.0 | |||||||
| 06 | 21:15 | N 20 | 16.09 | Overcast | OVC015 | 22.2 | 17.9 | 77% | 75.87 | 0.0 | |||||||
| 06 | 20:35 | N 20 | 16.09 | Overcast | OVC015 | 23.1 | 19 | 78% | 75.79 | 0.0 | |||||||
| 06 | 20:15 | N 26 G 31 | 11.27 | Mostly Cloudy | SCT013 BKN037 | 24.5 | 21.3 | 82% | 25 | 75.77 | 0.0 | ||||||
| 06 | 19:55 | Calm | 6.44 | Fog/Mist | CLR | 26 | 24.6 | 92% | 28 | 75.72 | 0.0 | ||||||
| 06 | 19:35 | SE 6 | 8.05 | Fog/Mist | CLR | 26.8 | 24.5 | 87% | 30 | 75.69 | 0.0 | ||||||
| 06 | 19:15 | SE 7 | 8.05 | Fair with Haze | CLR | 27.1 | 24.5 | 86% | 31 | 75.69 | 0.0 | ||||||
| 06 | 18:55 | S 9 | 8.05 | Fair with Haze | CLR | 27.5 | 24.4 | 30.3 | 27.5 | 83% | 31 | 75.69 | 0.0 | ||||
| 06 | 18:35 | SE 11 | 8.05 | Partly Cloudy with Haze | SCT015 | 27.9 | 24.5 | 82% | 32 | 75.67 | 0.0 | ||||||
| 06 | 18:15 | SE 13 | 8.05 | Partly Cloudy with Haze | SCT015 SCT029 | 27.9 | 24.6 | 82% | 32 | 75.67 | 0.0 | ||||||
| 06 | 17:55 | S 13 | 8.05 | Partly Cloudy with Haze | SCT015 SCT024 SCT029 | 28 | 24.4 | 81% | 32 | 75.67 | 0.0 | ||||||
| 06 | 17:35 | SE 15 | 8.05 | Mostly Cloudy with Haze | SCT021 BKN065 | 27.8 | 24.5 | 82% | 32 | 75.64 | 0.0 | ||||||
| 06 | 17:15 | S 19 | 8.05 | Overcast with Haze | SCT021 SCT060 OVC065 | 28.1 | 24.6 | 81% | 33 | 75.64 | 0.0 | ||||||
| 06 | 16:55 | S 13 | 11.27 | Mostly Cloudy | SCT039 BKN070 | 29.6 | 24.4 | 74% | 35 | 75.64 | 0.0 | ||||||
| 06 | 16:35 | S 11 | 11.27 | Mostly Cloudy | SCT039 BKN070 | 30.2 | 24.4 | 71% | 36 | 75.64 | 0.0 | ||||||
| 06 | 16:15 | S 11 | 8.05 | Mostly Cloudy with Haze | BKN070 | 30.2 | 24.4 | 71% | 36 | 75.64 | 0.0 | ||||||
| 06 | 15:55 | S 13 | 8.05 | Mostly Cloudy with Haze | SCT022 SCT042 BKN070 | 29.9 | 24.5 | 73% | 35 | 75.67 | 0.0 | ||||||
| 06 | 15:35 | S 9 | 8.05 | Overcast with Haze | SCT025 BKN038 OVC045 | 29 | 24.4 | 76% | 34 | 75.67 | 0.0 | ||||||
| 06 | 15:15 | S 11 | 8.05 | Overcast with Haze | SCT020 SCT026 OVC037 | 29 | 24.3 | 76% | 34 | 75.69 | 0.0 | ||||||
| 06 | 14:55 | S 13 | 8.05 | Overcast with Haze | BKN020 OVC026 | 28.7 | 24.4 | 78% | 33 | 75.69 | 0.0 | ||||||
| 06 | 14:35 | S 13 | 8.05 | Mostly Cloudy with Haze | BKN016 BKN024 | 28.6 | 24.5 | 79% | 33 | 75.69 | 0.0 | ||||||
| 06 | 14:15 | S 19 | 8.05 | Mostly Cloudy with Haze | BKN014 BKN025 BKN032 | 28.7 | 24.7 | 79% | 34 | 75.72 | 0.0 | ||||||
| 06 | 13:55 | SE 15 | 8.05 | Mostly Cloudy with Haze | BKN014 BKN024 BKN032 | 28.1 | 24.4 | 80% | 32 | 75.74 | 0.0 | ||||||
| 06 | 13:35 | SE 17 | 6.44 | Mostly Cloudy with Haze | BKN014 BKN022 BKN070 | 27.9 | 24.5 | 82% | 32 | 75.77 | 0.0 | ||||||
| 06 | 13:15 | SE 11 | 6.44 | Mostly Cloudy with Haze | BKN016 BKN021 BKN030 | 27.5 | 24 | 81% | 31 | 75.79 | 0.0 | ||||||
| 06 | 12:55 | SE 11 | 6.44 | Overcast with Haze | BKN016 OVC021 | 27.5 | 24.2 | 27.8 | 23.5 | 82% | 31 | 75.82 | 0.0 | ||||
| 06 | 12:35 | S 7 | 8.05 | Overcast with Haze | BKN016 OVC023 | 27.2 | 23.7 | 81% | 30 | 75.82 | 0.0 | ||||||
| 06 | 12:15 | SE 13 | 6.44 | Overcast with Haze | BKN014 OVC021 | 27.7 | 24.1 | 81% | 31 | 75.82 | 0.0 | ||||||
| 06 | 11:55 | SE 11 | 8.05 | Overcast with Haze | BKN014 OVC024 | 27.7 | 24.4 | 82% | 32 | 75.82 | 0.0 | ||||||
| 06 | 11:35 | SE 13 | 8.05 | Overcast with Haze | OVC012 | 27.5 | 24.4 | 83% | 31 | 75.82 | 0.0 | ||||||
| 06 | 10:55 | SE 9 | 8.05 | Fog/Mist | OVC008 | 25.8 | 23.8 | 89% | 28 | 75.82 | 0.0 | ||||||
| 06 | 10:35 | SE 13 | 8.05 | Fog/Mist | OVC010 | 25.7 | 23.8 | 89% | 27 | 75.77 | 0.0 | ||||||
| 06 | 10:15 | SE 15 | 8.05 | Fog/Mist | BKN012 OVC017 | 25.7 | 23.8 | 89% | 27 | 75.77 | 0.0 | ||||||
| 06 | 09:15 | SE 9 | 8.05 | Fog/Mist | OVC022 | 24.9 | 23.7 | 93% | 25 | 75.72 | 0.0 | ||||||
| 06 | 08:55 | SE 6 | 8.05 | Fog/Mist | OVC022 | 24.5 | 23.5 | 94% | 24 | 75.74 | 0.0 | ||||||
| 06 | 08:35 | SE 9 | 8.05 | Fog/Mist | BKN024 OVC035 | 24.3 | 23.5 | 95% | 24 | 75.74 | 0.0 | ||||||
| 06 | 08:15 | E 9 | 8.05 | Fog/Mist | SCT035 | 24.1 | 23.3 | 95% | 23 | 75.72 | 0.0 | ||||||
| 06 | 07:55 | E 9 | 6.44 | Fog/Mist | SCT037 SCT044 SCT060 | 24 | 23.3 | 96% | 23 | 75.72 | 0.0 | ||||||
| 06 | 07:35 | SE 6 | 6.44 | Fog/Mist | SCT029 SCT039 BKN050 | 23.7 | 23.2 | 97% | 75.72 | 0.0 | |||||||
| 06 | 07:15 | SE 9 | 6.44 | Fog/Mist | SCT013 BKN026 OVC050 | 23.6 | 23.1 | 97% | 75.72 | 0.0 | |||||||
| 06 | 06:55 | SE 7 | 6.44 | Fog/Mist | BKN011 BKN019 OVC032 | 23.5 | 23 | 24.5 | 23.5 | 97% | 75.72 | 0.0 | |||||
| 06 | 06:35 | SE 6 | 6.44 | Fog/Mist | OVC011 | 23.6 | 23 | 96% | 75.72 | 0.0 | |||||||
| 06 | 06:15 | E 6 | 8.05 | Fog/Mist | OVC011 | 23.6 | 23 | 96% | 75.69 | 0.0 | |||||||
| 06 | 05:55 | E 6 | 8.05 | Fog/Mist | OVC011 | 23.6 | 23 | 96% | 75.69 | 0.0 | |||||||
| 06 | 05:35 | E 6 | 8.05 | Fog/Mist | OVC011 | 23.6 | 23 | 96% | 75.67 | 0.0 | |||||||
| 06 | 05:15 | E 6 | 8.05 | Fog/Mist | OVC011 | 23.7 | 23 | 96% | 75.67 | 0.0 | |||||||
| 06 | 04:55 | Calm | 11.27 | Overcast | OVC011 | 23.7 | 22.8 | 95% | 75.67 | 0.0 | |||||||
| 06 | 04:35 | Calm | 8.05 | Fog/Mist | OVC011 | 23.8 | 23 | 95% | 75.67 | 0.0 | |||||||
| 06 | 04:15 | Calm | 11.27 | Overcast | BKN013 OVC024 | 23.7 | 23 | 96% | 75.67 | 0.0 | |||||||
| 06 | 03:55 | S 9 | 8.05 | Fog/Mist | BKN013 BKN018 OVC024 | 23.7 | 23 | 96% | 75.64 | 0.0 | |||||||
| 06 | 03:35 | SE 6 | 8.05 | Fog/Mist | OVC013 | 23.6 | 22.8 | 95% | 75.67 | 0.0 | |||||||
| 06 | 03:15 | S 11 | 11.27 | Overcast | BKN013 OVC019 | 24 | 22.9 | 94% | 23 | 75.67 | 0.0 | ||||||
| 06 | 02:55 | SE 9 | 11.27 | Overcast | BKN013 OVC020 | 24.2 | 23 | 93% | 24 | 75.69 | 0.0 | ||||||
| 06 | 02:35 | S 13 | 11.27 | Overcast | BKN013 BKN021 OVC027 | 24.3 | 23.1 | 93% | 24 | 75.69 | 0.0 | ||||||
| 06 | 02:15 | S 9 | 11.27 | Overcast | BKN013 BKN021 OVC027 | 24.3 | 23 | 92% | 24 | 75.72 | 0.0 | ||||||
| 06 | 01:55 | S 11 | 11.27 | Overcast | SCT015 SCT022 OVC026 | 24.3 | 23 | 92% | 24 | 75.72 | 0.0 | ||||||
| 06 | 01:35 | S 11 | 11.27 | Overcast | SCT015 BKN020 OVC026 | 24.4 | 23 | 92% | 24 | 75.74 | 0.0 | ||||||
| 06 | 01:15 | SE 13 | 11.27 | Overcast | BKN015 OVC023 | 24.3 | 23 | 92% | 24 | 75.74 | 0.0 | ||||||
| 06 | 00:55 | S 9 | 11.27 | Overcast | OVC013 | 24.4 | 23 | 26.1 | 24.2 | 92% | 24 | 75.74 | 0.0 | ||||
| 06 | 00:35 | S 7 | 11.27 | Overcast | OVC013 | 24.3 | 23 | 92% | 24 | 75.74 | 0.0 | ||||||
| 06 | 00:15 | S 9 | 11.27 | Overcast | OVC013 | 24.3 | 23 | 92% | 24 | 75.72 | 0.0 | ||||||
| 05 | 23:35 | S 11 | 11.27 | Overcast | OVC013 | 24.2 | 23 | 93% | 24 | 75.72 | 0.0 | ||||||
| 05 | 23:15 | S 13 | 11.27 | Overcast | OVC013 | 24.5 | 22.9 | 91% | 25 | 75.69 | 0.0 | ||||||
| 05 | 22:55 | S 13 | 11.27 | Overcast | BKN013 OVC034 | 24.6 | 22.8 | 90% | 25 | 75.69 | 0.0 | ||||||
| 05 | 22:35 | S 15 | 11.27 | Overcast | BKN013 OVC034 | 24.5 | 23 | 91% | 25 | 75.69 | 0.0 | ||||||
| 05 | 22:15 | SE 11 | 11.27 | Overcast | BKN015 OVC025 | 24.4 | 23 | 92% | 24 | 75.69 | 0.0 | ||||||
| 05 | 21:55 | S 13 | 11.27 | Overcast | BKN013 OVC020 | 24.5 | 22.9 | 91% | 25 | 75.67 | 0.0 | ||||||
| 05 | 21:35 | SE 9 | 11.27 | Overcast | SCT013 BKN025 OVC030 | 24.5 | 22.8 | 90% | 25 | 75.67 | 0.0 | ||||||
| 05 | 21:15 | SE 13 | 16.09 | Overcast | BKN013 OVC024 | 24.6 | 22.7 | 89% | 25 | 75.64 | 0.0 | ||||||
| 05 | 20:55 | S 11 | 16.09 | Overcast | OVC015 | 24.5 | 22.6 | 89% | 25 | 75.62 | 0.0 | ||||||
| 05 | 20:35 | S 22 | 16.09 | Overcast | OVC017 | 25 | 22.5 | 86% | 26 | 75.59 | 0.0 | ||||||
| 05 | 20:15 | S 17 | 16.09 | Overcast | BKN017 BKN028 OVC033 | 25 | 22.5 | 86% | 26 | 75.57 | 0.0 | ||||||
| 05 | 19:55 | S 20 G 30 | 16.09 | Overcast | SCT017 SCT027 OVC034 | 25.4 | 22.6 | 85% | 27 | 75.54 | 0.0 | ||||||
| 05 | 19:35 | S 20 G 28 | 16.09 | Overcast | OVC034 | 25.6 | 22.6 | 84% | 27 | 75.54 | 0.0 | ||||||
| 05 | 19:15 | S 22 G 31 | 16.09 | Overcast | SCT018 OVC036 | 25.9 | 22.6 | 82% | 28 | 75.54 | 0.0 | ||||||
| 05 | 18:55 | S 24 G 30 | 16.09 | Overcast | SCT020 OVC038 | 26.1 | 22.6 | 27.7 | 26.1 | 81% | 28 | 75.54 | 0.0 | ||||
| 05 | 18:35 | S 22 G 33 | 16.09 | Overcast | OVC040 | 26.4 | 22.5 | 79% | 28 | 75.54 | 0.0 | ||||||
| 05 | 18:15 | S 24 | 16.09 | Overcast | OVC040 | 26.5 | 22.5 | 79% | 29 | 75.54 | 0.0 | ||||||
| 05 | 17:55 | S 22 G 33 | 16.09 | Overcast | SCT023 OVC040 | 26.5 | 22.1 | 77% | 28 | 75.57 | 0.0 | ||||||
| 05 | 17:35 | S 17 G 26 | 16.09 | Overcast | SCT025 SCT032 OVC038 | 26.7 | 22.1 | 76% | 29 | 75.57 | 0.0 | ||||||
| 05 | 17:15 | S 19 G 28 | 16.09 | Overcast | BKN025 OVC040 | 26.8 | 22.4 | 77% | 29 | 75.57 | 0.0 | ||||||
| 05 | 16:55 | S 20 | 16.09 | Overcast | SCT023 OVC042 | 27.2 | 22.3 | 75% | 30 | 75.59 | 0.0 | ||||||
| Date | Time (cdt) | Wind (kph) | Vis. (km) | Weather | Sky Cond. | Air | Dwpt | Max. | Min. | Relative Humidity | Wind Chill (°C) | Heat Index (°C) | altimeter (cm) | sea level (mb) | 1 hr | 3 hr | 6 hr |
| 6 hour | |||||||||||||||||
| Temperature (ºC) | Pressure | Precipitation (cm) | |||||||||||||||